sensor_id;sensor_type;location;lat;lon;timestamp;P1;durP1;ratioP1;P2;durP2;ratioP2
19059;SDS011;9663;48.996;8.334;2022-08-05T00:00:30;2.55;;;0.93;;
19059;SDS011;9663;48.996;8.334;2022-08-05T00:02:56;2.65;;;1.00;;
19059;SDS011;9663;48.996;8.334;2022-08-05T00:05:22;3.20;;;1.00;;
19059;SDS011;9663;48.996;8.334;2022-08-05T00:07:48;2.72;;;1.00;;
19059;SDS011;9663;48.996;8.334;2022-08-05T00:10:13;2.55;;;1.00;;
19059;SDS011;9663;48.996;8.334;2022-08-05T00:12:39;2.55;;;0.93;;
19059;SDS011;9663;48.996;8.334;2022-08-05T00:15:05;2.15;;;0.90;;
19059;SDS011;9663;48.996;8.334;2022-08-05T00:17:31;2.50;;;1.05;;
19059;SDS011;9663;48.996;8.334;2022-08-05T00:19:57;3.40;;;1.10;;
19059;SDS011;9663;48.996;8.334;2022-08-05T00:22:22;2.72;;;1.00;;
19059;SDS011;9663;48.996;8.334;2022-08-05T00:24:48;2.60;;;1.00;;
19059;SDS011;9663;48.996;8.334;2022-08-05T00:27:14;4.32;;;1.23;;
19059;SDS011;9663;48.996;8.334;2022-08-05T00:29:40;3.35;;;1.10;;
19059;SDS011;9663;48.996;8.334;2022-08-05T00:32:05;2.50;;;1.00;;
19059;SDS011;9663;48.996;8.334;2022-08-05T00:34:32;2.92;;;1.15;;
19059;SDS011;9663;48.996;8.334;2022-08-05T00:36:58;2.83;;;1.15;;
19059;SDS011;9663;48.996;8.334;2022-08-05T00:39:24;3.20;;;1.40;;
19059;SDS011;9663;48.996;8.334;2022-08-05T00:41:50;3.30;;;1.38;;
19059;SDS011;9663;48.996;8.334;2022-08-05T00:44:15;2.90;;;1.20;;
19059;SDS011;9663;48.996;8.334;2022-08-05T00:46:41;3.67;;;1.33;;
19059;SDS011;9663;48.996;8.334;2022-08-05T00:49:07;3.10;;;1.13;;
19059;SDS011;9663;48.996;8.334;2022-08-05T00:51:32;3.03;;;1.27;;
19059;SDS011;9663;48.996;8.334;2022-08-05T00:53:58;3.67;;;1.13;;
19059;SDS011;9663;48.996;8.334;2022-08-05T00:56:23;2.63;;;1.05;;
19059;SDS011;9663;48.996;8.334;2022-08-05T00:58:49;4.07;;;1.13;;
19059;SDS011;9663;48.996;8.334;2022-08-05T01:01:15;4.72;;;1.40;;
19059;SDS011;9663;48.996;8.334;2022-08-05T01:03:40;2.35;;;0.95;;
19059;SDS011;9663;48.996;8.334;2022-08-05T01:06:07;3.17;;;1.10;;
19059;SDS011;9663;48.996;8.334;2022-08-05T01:08:34;2.95;;;1.13;;
19059;SDS011;9663;48.996;8.334;2022-08-05T01:11:02;3.33;;;1.13;;
19059;SDS011;9663;48.996;8.334;2022-08-05T01:16:28;2.85;;;1.30;;
19059;SDS011;9663;48.996;8.334;2022-08-05T01:19:11;4.00;;;1.25;;
19059;SDS011;9663;48.996;8.334;2022-08-05T01:28:08;2.97;;;1.15;;
19059;SDS011;9663;48.996;8.334;2022-08-05T01:33:36;2.95;;;0.90;;
19059;SDS011;9663;48.996;8.334;2022-08-05T01:36:12;2.75;;;1.10;;
19059;SDS011;9663;48.996;8.334;2022-08-05T01:38:43;2.60;;;1.10;;
19059;SDS011;9663;48.996;8.334;2022-08-05T01:41:12;3.35;;;1.20;;
19059;SDS011;9663;48.996;8.334;2022-08-05T01:43:43;3.67;;;1.05;;
19059;SDS011;9663;48.996;8.334;2022-08-05T01:46:13;3.03;;;1.10;;
19059;SDS011;9663;48.996;8.334;2022-08-05T01:48:40;2.50;;;1.08;;
19059;SDS011;9663;48.996;8.334;2022-08-05T01:51:09;3.25;;;1.10;;
19059;SDS011;9663;48.996;8.334;2022-08-05T01:53:36;2.53;;;0.88;;
19059;SDS011;9663;48.996;8.334;2022-08-05T01:56:05;2.95;;;0.95;;
19059;SDS011;9663;48.996;8.334;2022-08-05T01:58:34;3.90;;;1.10;;
19059;SDS011;9663;48.996;8.334;2022-08-05T02:01:00;3.08;;;1.02;;
19059;SDS011;9663;48.996;8.334;2022-08-05T02:03:32;4.43;;;1.00;;
19059;SDS011;9663;48.996;8.334;2022-08-05T02:06:03;2.65;;;1.10;;
19059;SDS011;9663;48.996;8.334;2022-08-05T02:08:31;2.88;;;1.05;;
19059;SDS011;9663;48.996;8.334;2022-08-05T02:11:01;2.45;;;0.88;;
19059;SDS011;9663;48.996;8.334;2022-08-05T02:13:43;3.20;;;1.13;;
19059;SDS011;9663;48.996;8.334;2022-08-05T02:16:24;3.67;;;1.50;;
19059;SDS011;9663;48.996;8.334;2022-08-05T02:24:40;2.85;;;1.10;;
19059;SDS011;9663;48.996;8.334;2022-08-05T02:27:15;2.75;;;1.17;;
19059;SDS011;9663;48.996;8.334;2022-08-05T02:29:47;3.28;;;1.20;;
19059;SDS011;9663;48.996;8.334;2022-08-05T02:32:15;3.67;;;1.20;;
19059;SDS011;9663;48.996;8.334;2022-08-05T02:34:44;2.88;;;1.00;;
19059;SDS011;9663;48.996;8.334;2022-08-05T02:37:10;4.70;;;1.00;;
19059;SDS011;9663;48.996;8.334;2022-08-05T02:39:38;3.78;;;1.50;;
19059;SDS011;9663;48.996;8.334;2022-08-05T02:42:06;3.65;;;1.27;;
19059;SDS011;9663;48.996;8.334;2022-08-05T02:44:34;3.85;;;1.30;;
19059;SDS011;9663;48.996;8.334;2022-08-05T02:47:04;4.78;;;1.52;;
19059;SDS011;9663;48.996;8.334;2022-08-05T02:49:34;3.15;;;1.00;;
19059;SDS011;9663;48.996;8.334;2022-08-05T02:52:04;4.40;;;1.02;;
19059;SDS011;9663;48.996;8.334;2022-08-05T02:54:34;4.25;;;1.30;;
19059;SDS011;9663;48.996;8.334;2022-08-05T02:57:05;3.78;;;1.30;;
19059;SDS011;9663;48.996;8.334;2022-08-05T02:59:35;2.95;;;1.20;;
19059;SDS011;9663;48.996;8.334;2022-08-05T03:02:01;3.75;;;1.23;;
19059;SDS011;9663;48.996;8.334;2022-08-05T03:04:28;3.53;;;1.23;;
19059;SDS011;9663;48.996;8.334;2022-08-05T03:06:55;4.97;;;1.40;;
19059;SDS011;9663;48.996;8.334;2022-08-05T03:09:23;3.15;;;1.27;;
19059;SDS011;9663;48.996;8.334;2022-08-05T03:11:49;3.95;;;1.20;;
19059;SDS011;9663;48.996;8.334;2022-08-05T03:14:15;2.83;;;1.30;;
19059;SDS011;9663;48.996;8.334;2022-08-05T03:16:41;2.75;;;1.20;;
19059;SDS011;9663;48.996;8.334;2022-08-05T03:19:06;3.50;;;1.20;;
19059;SDS011;9663;48.996;8.334;2022-08-05T03:21:32;3.72;;;1.25;;
19059;SDS011;9663;48.996;8.334;2022-08-05T03:23:58;3.55;;;1.38;;
19059;SDS011;9663;48.996;8.334;2022-08-05T03:26:24;2.97;;;1.20;;
19059;SDS011;9663;48.996;8.334;2022-08-05T03:28:50;3.20;;;1.27;;
19059;SDS011;9663;48.996;8.334;2022-08-05T03:31:16;3.65;;;1.23;;
19059;SDS011;9663;48.996;8.334;2022-08-05T03:33:42;3.90;;;1.30;;
19059;SDS011;9663;48.996;8.334;2022-08-05T03:36:09;3.88;;;1.27;;
19059;SDS011;9663;48.996;8.334;2022-08-05T03:38:39;3.22;;;1.50;;
19059;SDS011;9663;48.996;8.334;2022-08-05T03:41:08;5.50;;;1.30;;
19059;SDS011;9663;48.996;8.334;2022-08-05T03:43:34;3.25;;;1.27;;
19059;SDS011;9663;48.996;8.334;2022-08-05T03:46:00;4.93;;;1.30;;
19059;SDS011;9663;48.996;8.334;2022-08-05T03:48:27;3.00;;;1.30;;
19059;SDS011;9663;48.996;8.334;2022-08-05T03:53:49;3.00;;;1.30;;
19059;SDS011;9663;48.996;8.334;2022-08-05T03:59:09;5.22;;;1.67;;
19059;SDS011;9663;48.996;8.334;2022-08-05T04:01:45;3.05;;;1.20;;
19059;SDS011;9663;48.996;8.334;2022-08-05T04:04:13;2.42;;;0.88;;
19059;SDS011;9663;48.996;8.334;2022-08-05T04:06:40;3.92;;;1.20;;
19059;SDS011;9663;48.996;8.334;2022-08-05T04:09:08;3.45;;;1.15;;
19059;SDS011;9663;48.996;8.334;2022-08-05T04:11:34;3.85;;;1.23;;
19059;SDS011;9663;48.996;8.334;2022-08-05T04:14:02;2.95;;;1.30;;
19059;SDS011;9663;48.996;8.334;2022-08-05T04:16:29;3.97;;;1.42;;
19059;SDS011;9663;48.996;8.334;2022-08-05T04:18:56;3.45;;;1.40;;
19059;SDS011;9663;48.996;8.334;2022-08-05T04:21:22;3.78;;;1.20;;
19059;SDS011;9663;48.996;8.334;2022-08-05T04:23:48;2.72;;;1.20;;
19059;SDS011;9663;48.996;8.334;2022-08-05T04:26:14;3.45;;;1.20;;
19059;SDS011;9663;48.996;8.334;2022-08-05T04:28:40;3.50;;;1.45;;
19059;SDS011;9663;48.996;8.334;2022-08-05T04:31:06;3.45;;;1.30;;
19059;SDS011;9663;48.996;8.334;2022-08-05T04:33:32;4.30;;;1.33;;
19059;SDS011;9663;48.996;8.334;2022-08-05T04:35:57;3.90;;;1.27;;
19059;SDS011;9663;48.996;8.334;2022-08-05T04:38:23;3.67;;;1.42;;
19059;SDS011;9663;48.996;8.334;2022-08-05T04:40:49;3.03;;;1.17;;
19059;SDS011;9663;48.996;8.334;2022-08-05T04:43:14;3.58;;;1.23;;
19059;SDS011;9663;48.996;8.334;2022-08-05T04:45:40;3.13;;;1.13;;
19059;SDS011;9663;48.996;8.334;2022-08-05T04:48:06;2.85;;;1.10;;
19059;SDS011;9663;48.996;8.334;2022-08-05T04:50:41;3.28;;;1.23;;
19059;SDS011;9663;48.996;8.334;2022-08-05T04:53:13;3.25;;;1.38;;
19059;SDS011;9663;48.996;8.334;2022-08-05T04:55:41;2.17;;;0.85;;
19059;SDS011;9663;48.996;8.334;2022-08-05T04:58:11;2.85;;;1.08;;
19059;SDS011;9663;48.996;8.334;2022-08-05T05:00:39;3.25;;;1.30;;
19059;SDS011;9663;48.996;8.334;2022-08-05T05:03:06;3.28;;;1.35;;
19059;SDS011;9663;48.996;8.334;2022-08-05T05:05:33;2.97;;;1.20;;
19059;SDS011;9663;48.996;8.334;2022-08-05T05:08:00;3.15;;;1.13;;
19059;SDS011;9663;48.996;8.334;2022-08-05T05:10:31;2.63;;;1.10;;
19059;SDS011;9663;48.996;8.334;2022-08-05T05:13:02;3.13;;;1.33;;
19059;SDS011;9663;48.996;8.334;2022-08-05T05:15:28;2.72;;;1.08;;
19059;SDS011;9663;48.996;8.334;2022-08-05T05:17:54;4.72;;;1.15;;
19059;SDS011;9663;48.996;8.334;2022-08-05T05:20:19;3.17;;;1.15;;
19059;SDS011;9663;48.996;8.334;2022-08-05T05:22:45;3.60;;;1.23;;
19059;SDS011;9663;48.996;8.334;2022-08-05T05:25:11;2.70;;;1.00;;
19059;SDS011;9663;48.996;8.334;2022-08-05T05:27:38;3.40;;;0.93;;
19059;SDS011;9663;48.996;8.334;2022-08-05T05:30:04;2.67;;;0.90;;
19059;SDS011;9663;48.996;8.334;2022-08-05T05:32:31;3.70;;;1.23;;
19059;SDS011;9663;48.996;8.334;2022-08-05T05:34:57;2.08;;;0.90;;
19059;SDS011;9663;48.996;8.334;2022-08-05T05:37:22;2.60;;;0.90;;
19059;SDS011;9663;48.996;8.334;2022-08-05T05:39:48;3.00;;;1.25;;
19059;SDS011;9663;48.996;8.334;2022-08-05T05:42:14;2.85;;;1.10;;
19059;SDS011;9663;48.996;8.334;2022-08-05T05:44:40;2.28;;;1.08;;
19059;SDS011;9663;48.996;8.334;2022-08-05T05:47:05;2.78;;;1.00;;
19059;SDS011;9663;48.996;8.334;2022-08-05T05:49:31;3.10;;;1.10;;
19059;SDS011;9663;48.996;8.334;2022-08-05T05:51:57;2.45;;;0.85;;
19059;SDS011;9663;48.996;8.334;2022-08-05T05:54:22;2.25;;;0.82;;
19059;SDS011;9663;48.996;8.334;2022-08-05T05:56:48;3.13;;;1.13;;
19059;SDS011;9663;48.996;8.334;2022-08-05T05:59:14;3.17;;;1.02;;
19059;SDS011;9663;48.996;8.334;2022-08-05T06:01:40;4.45;;;1.30;;
19059;SDS011;9663;48.996;8.334;2022-08-05T06:04:10;2.50;;;1.05;;
19059;SDS011;9663;48.996;8.334;2022-08-05T06:06:37;3.50;;;0.80;;
19059;SDS011;9663;48.996;8.334;2022-08-05T06:09:05;2.78;;;1.10;;
19059;SDS011;9663;48.996;8.334;2022-08-05T06:11:31;3.28;;;1.20;;
19059;SDS011;9663;48.996;8.334;2022-08-05T06:13:58;3.08;;;1.15;;
19059;SDS011;9663;48.996;8.334;2022-08-05T06:16:24;3.00;;;1.00;;
19059;SDS011;9663;48.996;8.334;2022-08-05T06:18:50;2.95;;;1.10;;
19059;SDS011;9663;48.996;8.334;2022-08-05T06:21:16;2.42;;;1.10;;
19059;SDS011;9663;48.996;8.334;2022-08-05T06:23:42;2.45;;;1.00;;
19059;SDS011;9663;48.996;8.334;2022-08-05T06:26:09;4.38;;;0.95;;
19059;SDS011;9663;48.996;8.334;2022-08-05T06:28:35;3.92;;;1.30;;
19059;SDS011;9663;48.996;8.334;2022-08-05T06:31:01;3.22;;;1.17;;
19059;SDS011;9663;48.996;8.334;2022-08-05T06:33:27;2.92;;;1.30;;
19059;SDS011;9663;48.996;8.334;2022-08-05T06:35:53;2.58;;;1.05;;
19059;SDS011;9663;48.996;8.334;2022-08-05T06:38:19;2.75;;;1.02;;
19059;SDS011;9663;48.996;8.334;2022-08-05T06:40:45;2.63;;;1.10;;
19059;SDS011;9663;48.996;8.334;2022-08-05T06:43:11;3.90;;;1.48;;
19059;SDS011;9663;48.996;8.334;2022-08-05T06:45:37;3.25;;;1.23;;
19059;SDS011;9663;48.996;8.334;2022-08-05T06:48:03;3.15;;;1.20;;
19059;SDS011;9663;48.996;8.334;2022-08-05T06:50:29;3.17;;;1.10;;
19059;SDS011;9663;48.996;8.334;2022-08-05T06:52:54;2.80;;;1.17;;
19059;SDS011;9663;48.996;8.334;2022-08-05T06:55:20;2.78;;;1.10;;
19059;SDS011;9663;48.996;8.334;2022-08-05T06:57:46;3.70;;;1.20;;
19059;SDS011;9663;48.996;8.334;2022-08-05T07:00:11;3.45;;;1.10;;
19059;SDS011;9663;48.996;8.334;2022-08-05T07:02:43;2.83;;;1.15;;
19059;SDS011;9663;48.996;8.334;2022-08-05T07:05:11;3.05;;;1.02;;
19059;SDS011;9663;48.996;8.334;2022-08-05T07:07:38;3.53;;;1.00;;
19059;SDS011;9663;48.996;8.334;2022-08-05T07:10:05;4.20;;;1.27;;
19059;SDS011;9663;48.996;8.334;2022-08-05T07:12:32;3.53;;;1.15;;
19059;SDS011;9663;48.996;8.334;2022-08-05T07:15:18;2.17;;;0.90;;
19059;SDS011;9663;48.996;8.334;2022-08-05T07:18:03;2.85;;;0.90;;
19059;SDS011;9663;48.996;8.334;2022-08-05T07:20:29;2.15;;;0.82;;
19059;SDS011;9663;48.996;8.334;2022-08-05T07:22:54;3.75;;;1.05;;
19059;SDS011;9663;48.996;8.334;2022-08-05T07:25:20;1.77;;;0.80;;
19059;SDS011;9663;48.996;8.334;2022-08-05T07:27:47;2.55;;;1.10;;
19059;SDS011;9663;48.996;8.334;2022-08-05T07:30:14;2.63;;;0.93;;
19059;SDS011;9663;48.996;8.334;2022-08-05T07:32:39;2.83;;;1.05;;
19059;SDS011;9663;48.996;8.334;2022-08-05T07:35:12;1.85;;;0.90;;
19059;SDS011;9663;48.996;8.334;2022-08-05T07:37:38;2.35;;;0.98;;
19059;SDS011;9663;48.996;8.334;2022-08-05T07:40:05;2.90;;;1.20;;
19059;SDS011;9663;48.996;8.334;2022-08-05T07:42:32;2.40;;;0.95;;
19059;SDS011;9663;48.996;8.334;2022-08-05T07:44:58;2.53;;;0.85;;
19059;SDS011;9663;48.996;8.334;2022-08-05T07:47:24;3.25;;;1.02;;
19059;SDS011;9663;48.996;8.334;2022-08-05T07:49:50;2.90;;;1.10;;
19059;SDS011;9663;48.996;8.334;2022-08-05T07:52:18;2.38;;;0.80;;
19059;SDS011;9663;48.996;8.334;2022-08-05T07:54:45;2.85;;;1.00;;
19059;SDS011;9663;48.996;8.334;2022-08-05T07:57:11;2.97;;;1.00;;
19059;SDS011;9663;48.996;8.334;2022-08-05T07:59:37;2.97;;;1.17;;
19059;SDS011;9663;48.996;8.334;2022-08-05T08:02:03;2.03;;;0.73;;
19059;SDS011;9663;48.996;8.334;2022-08-05T08:04:29;2.60;;;1.00;;
19059;SDS011;9663;48.996;8.334;2022-08-05T08:06:55;3.47;;;0.90;;
19059;SDS011;9663;48.996;8.334;2022-08-05T08:09:22;1.90;;;0.82;;
19059;SDS011;9663;48.996;8.334;2022-08-05T08:11:48;2.80;;;0.98;;
19059;SDS011;9663;48.996;8.334;2022-08-05T08:14:14;2.70;;;0.82;;
19059;SDS011;9663;48.996;8.334;2022-08-05T08:16:40;2.20;;;0.80;;
19059;SDS011;9663;48.996;8.334;2022-08-05T08:19:06;2.13;;;0.80;;
19059;SDS011;9663;48.996;8.334;2022-08-05T08:21:32;1.98;;;0.82;;
19059;SDS011;9663;48.996;8.334;2022-08-05T08:23:58;3.00;;;0.93;;
19059;SDS011;9663;48.996;8.334;2022-08-05T08:26:24;1.98;;;0.80;;
19059;SDS011;9663;48.996;8.334;2022-08-05T08:28:50;2.83;;;0.90;;
19059;SDS011;9663;48.996;8.334;2022-08-05T08:31:16;1.60;;;0.70;;
19059;SDS011;9663;48.996;8.334;2022-08-05T08:33:42;2.45;;;1.00;;
19059;SDS011;9663;48.996;8.334;2022-08-05T08:36:09;1.98;;;0.77;;
19059;SDS011;9663;48.996;8.334;2022-08-05T08:38:35;2.83;;;0.93;;
19059;SDS011;9663;48.996;8.334;2022-08-05T08:41:05;2.83;;;0.90;;
19059;SDS011;9663;48.996;8.334;2022-08-05T08:43:37;2.38;;;1.02;;
19059;SDS011;9663;48.996;8.334;2022-08-05T08:46:05;2.42;;;0.95;;
19059;SDS011;9663;48.996;8.334;2022-08-05T08:48:31;2.30;;;1.00;;
19059;SDS011;9663;48.996;8.334;2022-08-05T08:50:59;2.92;;;1.25;;
19059;SDS011;9663;48.996;8.334;2022-08-05T08:53:27;2.78;;;0.90;;
19059;SDS011;9663;48.996;8.334;2022-08-05T08:56:01;2.42;;;0.82;;
19059;SDS011;9663;48.996;8.334;2022-08-05T08:58:29;3.03;;;0.80;;
19059;SDS011;9663;48.996;8.334;2022-08-05T09:00:56;2.50;;;0.82;;
19059;SDS011;9663;48.996;8.334;2022-08-05T09:03:22;2.90;;;0.90;;
19059;SDS011;9663;48.996;8.334;2022-08-05T09:05:49;2.25;;;0.95;;
19059;SDS011;9663;48.996;8.334;2022-08-05T09:08:15;2.47;;;0.88;;
19059;SDS011;9663;48.996;8.334;2022-08-05T09:10:43;2.50;;;0.90;;
19059;SDS011;9663;48.996;8.334;2022-08-05T09:13:16;2.17;;;0.80;;
19059;SDS011;9663;48.996;8.334;2022-08-05T09:15:43;2.05;;;0.70;;
19059;SDS011;9663;48.996;8.334;2022-08-05T09:18:13;2.25;;;0.88;;
19059;SDS011;9663;48.996;8.334;2022-08-05T09:20:39;2.85;;;1.02;;
19059;SDS011;9663;48.996;8.334;2022-08-05T09:23:15;2.05;;;0.80;;
19059;SDS011;9663;48.996;8.334;2022-08-05T09:25:51;2.70;;;0.98;;
19059;SDS011;9663;48.996;8.334;2022-08-05T09:28:36;3.13;;;1.00;;
19059;SDS011;9663;48.996;8.334;2022-08-05T09:31:05;2.47;;;0.90;;
19059;SDS011;9663;48.996;8.334;2022-08-05T09:33:47;1.77;;;0.70;;
19059;SDS011;9663;48.996;8.334;2022-08-05T09:36:19;2.42;;;0.90;;
19059;SDS011;9663;48.996;8.334;2022-08-05T09:38:55;2.20;;;1.00;;
19059;SDS011;9663;48.996;8.334;2022-08-05T09:41:26;3.28;;;0.90;;
19059;SDS011;9663;48.996;8.334;2022-08-05T09:43:52;3.78;;;1.00;;
19059;SDS011;9663;48.996;8.334;2022-08-05T09:46:29;2.30;;;0.88;;
19059;SDS011;9663;48.996;8.334;2022-08-05T09:49:00;3.53;;;0.98;;
19059;SDS011;9663;48.996;8.334;2022-08-05T09:51:34;3.42;;;1.00;;
19059;SDS011;9663;48.996;8.334;2022-08-05T09:54:03;2.25;;;0.80;;
19059;SDS011;9663;48.996;8.334;2022-08-05T09:56:32;2.00;;;0.80;;
19059;SDS011;9663;48.996;8.334;2022-08-05T09:59:05;3.55;;;1.10;;
19059;SDS011;9663;48.996;8.334;2022-08-05T10:01:35;1.42;;;0.68;;
19059;SDS011;9663;48.996;8.334;2022-08-05T10:06:39;2.17;;;0.85;;
19059;SDS011;9663;48.996;8.334;2022-08-05T10:09:11;2.20;;;0.82;;
19059;SDS011;9663;48.996;8.334;2022-08-05T10:11:43;3.03;;;1.00;;
19059;SDS011;9663;48.996;8.334;2022-08-05T10:14:28;2.17;;;0.88;;
19059;SDS011;9663;48.996;8.334;2022-08-05T10:16:57;2.20;;;0.90;;
19059;SDS011;9663;48.996;8.334;2022-08-05T10:19:38;2.80;;;1.00;;
19059;SDS011;9663;48.996;8.334;2022-08-05T10:22:05;3.17;;;1.02;;
19059;SDS011;9663;48.996;8.334;2022-08-05T10:24:32;2.63;;;0.80;;
19059;SDS011;9663;48.996;8.334;2022-08-05T10:26:59;2.20;;;0.85;;
19059;SDS011;9663;48.996;8.334;2022-08-05T10:29:25;2.53;;;1.00;;
19059;SDS011;9663;48.996;8.334;2022-08-05T10:31:54;2.90;;;1.20;;
19059;SDS011;9663;48.996;8.334;2022-08-05T10:34:20;3.83;;;0.95;;
19059;SDS011;9663;48.996;8.334;2022-08-05T10:36:46;2.00;;;0.95;;
19059;SDS011;9663;48.996;8.334;2022-08-05T10:39:17;2.17;;;0.80;;
19059;SDS011;9663;48.996;8.334;2022-08-05T10:41:54;3.75;;;0.88;;
19059;SDS011;9663;48.996;8.334;2022-08-05T10:44:31;3.13;;;0.80;;
19059;SDS011;9663;48.996;8.334;2022-08-05T10:46:59;2.40;;;1.00;;
19059;SDS011;9663;48.996;8.334;2022-08-05T10:52:42;2.75;;;1.00;;
19059;SDS011;9663;48.996;8.334;2022-08-05T10:55:24;3.30;;;1.30;;
19059;SDS011;9663;48.996;8.334;2022-08-05T10:58:09;2.28;;;0.98;;
19059;SDS011;9663;48.996;8.334;2022-08-05T11:00:36;3.97;;;1.50;;
19059;SDS011;9663;48.996;8.334;2022-08-05T11:05:33;3.20;;;1.10;;
19059;SDS011;9663;48.996;8.334;2022-08-05T11:08:02;4.35;;;1.40;;
19059;SDS011;9663;48.996;8.334;2022-08-05T11:10:34;5.47;;;3.00;;
19059;SDS011;9663;48.996;8.334;2022-08-05T11:13:02;3.65;;;1.90;;
19059;SDS011;9663;48.996;8.334;2022-08-05T11:15:30;4.47;;;2.28;;
19059;SDS011;9663;48.996;8.334;2022-08-05T11:18:06;3.92;;;1.60;;
19059;SDS011;9663;48.996;8.334;2022-08-05T11:26:08;2.83;;;1.13;;
19059;SDS011;9663;48.996;8.334;2022-08-05T11:28:41;2.47;;;1.02;;
19059;SDS011;9663;48.996;8.334;2022-08-05T11:36:17;3.67;;;1.40;;
19059;SDS011;9663;48.996;8.334;2022-08-05T11:41:22;2.85;;;1.30;;
19059;SDS011;9663;48.996;8.334;2022-08-05T11:49:14;2.90;;;1.35;;
19059;SDS011;9663;48.996;8.334;2022-08-05T11:51:43;3.30;;;1.35;;
19059;SDS011;9663;48.996;8.334;2022-08-05T11:54:12;2.65;;;1.20;;
19059;SDS011;9663;48.996;8.334;2022-08-05T11:56:47;3.33;;;1.30;;
19059;SDS011;9663;48.996;8.334;2022-08-05T11:59:17;4.47;;;2.72;;
19059;SDS011;9663;48.996;8.334;2022-08-05T12:02:22;4.18;;;2.67;;
19059;SDS011;9663;48.996;8.334;2022-08-05T12:07:06;3.75;;;2.08;;
19059;SDS011;9663;48.996;8.334;2022-08-05T12:09:38;3.15;;;1.52;;
19059;SDS011;9663;48.996;8.334;2022-08-05T12:12:08;3.17;;;1.15;;
19059;SDS011;9663;48.996;8.334;2022-08-05T12:14:41;2.38;;;1.00;;
19059;SDS011;9663;48.996;8.334;2022-08-05T12:17:08;2.03;;;0.90;;
19059;SDS011;9663;48.996;8.334;2022-08-05T12:22:14;2.60;;;1.10;;
19059;SDS011;9663;48.996;8.334;2022-08-05T12:24:44;2.63;;;1.17;;
19059;SDS011;9663;48.996;8.334;2022-08-05T12:29:57;2.63;;;1.20;;
19059;SDS011;9663;48.996;8.334;2022-08-05T12:32:41;1.70;;;0.85;;
19059;SDS011;9663;48.996;8.334;2022-08-05T12:35:10;3.47;;;1.13;;
19059;SDS011;9663;48.996;8.334;2022-08-05T12:37:39;2.15;;;1.08;;
19059;SDS011;9663;48.996;8.334;2022-08-05T12:40:09;2.38;;;1.13;;
19059;SDS011;9663;48.996;8.334;2022-08-05T12:42:36;1.83;;;0.90;;
19059;SDS011;9663;48.996;8.334;2022-08-05T12:45:06;3.45;;;1.25;;
19059;SDS011;9663;48.996;8.334;2022-08-05T12:47:34;2.42;;;0.98;;
19059;SDS011;9663;48.996;8.334;2022-08-05T12:50:12;2.47;;;0.90;;
19059;SDS011;9663;48.996;8.334;2022-08-05T12:52:40;2.42;;;1.02;;
19059;SDS011;9663;48.996;8.334;2022-08-05T12:55:19;2.17;;;0.98;;
19059;SDS011;9663;48.996;8.334;2022-08-05T12:57:47;2.00;;;0.95;;
19059;SDS011;9663;48.996;8.334;2022-08-05T13:00:22;2.65;;;1.02;;
19059;SDS011;9663;48.996;8.334;2022-08-05T13:02:54;2.35;;;0.93;;
19059;SDS011;9663;48.996;8.334;2022-08-05T13:05:21;2.83;;;1.05;;
19059;SDS011;9663;48.996;8.334;2022-08-05T13:07:50;2.65;;;1.10;;
19059;SDS011;9663;48.996;8.334;2022-08-05T13:10:16;2.30;;;1.10;;
19059;SDS011;9663;48.996;8.334;2022-08-05T13:12:42;2.90;;;1.02;;
19059;SDS011;9663;48.996;8.334;2022-08-05T13:15:10;2.85;;;1.25;;
19059;SDS011;9663;48.996;8.334;2022-08-05T13:17:38;3.75;;;1.17;;
19059;SDS011;9663;48.996;8.334;2022-08-05T13:22:35;6.10;;;1.33;;
19059;SDS011;9663;48.996;8.334;2022-08-05T13:25:13;2.63;;;1.23;;
19059;SDS011;9663;48.996;8.334;2022-08-05T13:27:42;6.35;;;1.48;;
19059;SDS011;9663;48.996;8.334;2022-08-05T13:30:13;2.92;;;1.20;;
19059;SDS011;9663;48.996;8.334;2022-08-05T13:32:41;3.33;;;1.30;;
19059;SDS011;9663;48.996;8.334;2022-08-05T13:35:12;3.08;;;1.27;;
19059;SDS011;9663;48.996;8.334;2022-08-05T13:37:42;3.33;;;1.38;;
19059;SDS011;9663;48.996;8.334;2022-08-05T13:40:08;2.92;;;1.13;;
19059;SDS011;9663;48.996;8.334;2022-08-05T13:42:35;3.03;;;1.30;;
19059;SDS011;9663;48.996;8.334;2022-08-05T13:45:02;3.22;;;1.30;;
19059;SDS011;9663;48.996;8.334;2022-08-05T13:47:28;3.97;;;1.38;;
19059;SDS011;9663;48.996;8.334;2022-08-05T13:49:54;3.88;;;1.35;;
19059;SDS011;9663;48.996;8.334;2022-08-05T13:52:23;3.60;;;1.63;;
19059;SDS011;9663;48.996;8.334;2022-08-05T13:54:54;4.38;;;1.60;;
19059;SDS011;9663;48.996;8.334;2022-08-05T13:57:21;4.30;;;1.60;;
19059;SDS011;9663;48.996;8.334;2022-08-05T13:59:47;2.50;;;1.20;;
19059;SDS011;9663;48.996;8.334;2022-08-05T14:02:13;2.90;;;1.30;;
19059;SDS011;9663;48.996;8.334;2022-08-05T14:04:40;3.47;;;1.50;;
19059;SDS011;9663;48.996;8.334;2022-08-05T14:07:31;3.83;;;1.48;;
19059;SDS011;9663;48.996;8.334;2022-08-05T14:10:00;3.58;;;1.50;;
19059;SDS011;9663;48.996;8.334;2022-08-05T14:12:26;4.72;;;1.73;;
19059;SDS011;9663;48.996;8.334;2022-08-05T14:14:52;3.53;;;1.55;;
19059;SDS011;9663;48.996;8.334;2022-08-05T14:17:18;2.95;;;1.25;;
19059;SDS011;9663;48.996;8.334;2022-08-05T14:19:44;2.88;;;1.40;;
19059;SDS011;9663;48.996;8.334;2022-08-05T14:22:09;3.55;;;1.23;;
19059;SDS011;9663;48.996;8.334;2022-08-05T14:24:36;3.17;;;1.35;;
19059;SDS011;9663;48.996;8.334;2022-08-05T14:27:03;3.60;;;1.50;;
19059;SDS011;9663;48.996;8.334;2022-08-05T14:29:30;2.65;;;1.30;;
19059;SDS011;9663;48.996;8.334;2022-08-05T14:31:56;3.20;;;1.30;;
19059;SDS011;9663;48.996;8.334;2022-08-05T14:34:22;3.17;;;1.45;;
19059;SDS011;9663;48.996;8.334;2022-08-05T14:36:48;4.00;;;1.40;;
19059;SDS011;9663;48.996;8.334;2022-08-05T14:39:14;2.70;;;1.30;;
19059;SDS011;9663;48.996;8.334;2022-08-05T14:41:39;2.67;;;1.20;;
19059;SDS011;9663;48.996;8.334;2022-08-05T14:44:05;2.72;;;1.23;;
19059;SDS011;9663;48.996;8.334;2022-08-05T14:46:32;3.90;;;1.55;;
19059;SDS011;9663;48.996;8.334;2022-08-05T14:48:59;4.32;;;1.50;;
19059;SDS011;9663;48.996;8.334;2022-08-05T14:51:26;3.85;;;1.40;;
19059;SDS011;9663;48.996;8.334;2022-08-05T14:53:52;3.00;;;1.40;;
19059;SDS011;9663;48.996;8.334;2022-08-05T14:56:18;3.67;;;1.58;;
19059;SDS011;9663;48.996;8.334;2022-08-05T14:58:43;3.58;;;1.70;;
19059;SDS011;9663;48.996;8.334;2022-08-05T15:01:09;3.50;;;1.50;;
19059;SDS011;9663;48.996;8.334;2022-08-05T15:03:35;2.90;;;1.50;;
19059;SDS011;9663;48.996;8.334;2022-08-05T15:06:02;3.80;;;1.52;;
19059;SDS011;9663;48.996;8.334;2022-08-05T15:08:28;3.58;;;1.63;;
19059;SDS011;9663;48.996;8.334;2022-08-05T15:10:54;3.28;;;1.42;;
19059;SDS011;9663;48.996;8.334;2022-08-05T15:13:20;3.70;;;1.65;;
19059;SDS011;9663;48.996;8.334;2022-08-05T15:15:46;2.92;;;1.50;;
19059;SDS011;9663;48.996;8.334;2022-08-05T15:18:12;3.15;;;1.45;;
19059;SDS011;9663;48.996;8.334;2022-08-05T15:20:37;4.03;;;1.50;;
19059;SDS011;9663;48.996;8.334;2022-08-05T15:23:07;3.17;;;1.48;;
19059;SDS011;9663;48.996;8.334;2022-08-05T15:25:36;2.97;;;1.33;;
19059;SDS011;9663;48.996;8.334;2022-08-05T15:28:04;3.20;;;1.38;;
19059;SDS011;9663;48.996;8.334;2022-08-05T15:30:31;2.67;;;1.20;;
19059;SDS011;9663;48.996;8.334;2022-08-05T15:32:59;3.13;;;1.20;;
19059;SDS011;9663;48.996;8.334;2022-08-05T15:35:25;3.08;;;1.30;;
19059;SDS011;9663;48.996;8.334;2022-08-05T15:37:51;3.65;;;1.40;;
19059;SDS011;9663;48.996;8.334;2022-08-05T15:40:17;3.40;;;1.40;;
19059;SDS011;9663;48.996;8.334;2022-08-05T15:42:43;4.35;;;1.63;;
19059;SDS011;9663;48.996;8.334;2022-08-05T15:45:09;2.65;;;1.23;;
19059;SDS011;9663;48.996;8.334;2022-08-05T15:47:39;2.88;;;1.10;;
19059;SDS011;9663;48.996;8.334;2022-08-05T15:50:06;3.47;;;1.27;;
19059;SDS011;9663;48.996;8.334;2022-08-05T15:52:34;3.53;;;1.30;;
19059;SDS011;9663;48.996;8.334;2022-08-05T15:55:04;3.47;;;1.40;;
19059;SDS011;9663;48.996;8.334;2022-08-05T15:57:34;3.00;;;1.30;;
19059;SDS011;9663;48.996;8.334;2022-08-05T16:00:00;2.88;;;1.17;;
19059;SDS011;9663;48.996;8.334;2022-08-05T16:02:29;3.22;;;1.40;;
19059;SDS011;9663;48.996;8.334;2022-08-05T16:04:54;3.47;;;1.15;;
19059;SDS011;9663;48.996;8.334;2022-08-05T16:07:20;4.47;;;1.40;;